Airfield :







YOU CAN JOIN US ON...

 
LOGIN :

Register | Disclaimer

   EN    FR    IT 

 









Legend :    VFR   Marginal VFR   IFR   Intensive IFR   Very Intensive IFR
Visi :
Ceiling :
>= 8 km
>= 3000ft
5 to 8 km
1000 to 3000 ft
1500m to 5 km
500 to 1000 ft
800 to 1500m
200 to 500 ft
< 800m
< 200 ft
Symbols :   Thunderstorms  Fog  Heavy snow  Heavy precipitations  Wind > 20 kt







- Airport Elevation : 266 ft
- IATA code : MHT


KMHT - Manchester

CURRENT METAR :
  • 221253Z 35009KT 10SM OVC006 13/12 A3011 RMK AO2 SLP207 T01330117

EXPIRED METARs :
  • 221207Z 34003KT 10SM OVC005 12/11 A3012 RMK AO2 T01170111
  • 221153Z 34003KT 1 1/2SM BR BKN004 OVC008 12/11 A3011 RMK AO2 SFC VIS 4 CIG 003V007 SLP208 T01170106 10128 20100 53012
  • 221130Z 34006KT 1 1/2SM BR OVC005 11/11 A3010 RMK AO2 SFC VIS 4 CIG 003V009 T01110106
  • 221118Z 34007KT 1 1/2SM OVC004 11/11 A3010 RMK AO2 SFC VIS 10 CIG 003V008 T01110106
  • 221055Z 34007KT 10SM FEW004 11/10 A3010 RMK AO2 T01060100

TAF KMHT
Valid from the 22 at 12:00 until the 23 at 12:00 UTC


221216Z 2212/2312 36006KT P6SM OVC005
TEMPO 2213/2215 SCT005 OVC060
FM221500 04010G17KT 5SM -SHRA BR OVC015
FM230200 01010KT 4SM -SHRA BR OVC007
KZBW FIR / North America



MET'MAP, your aeronautical weather chart ! - Copyright ORBIFLY December 2007 - Disclaimer

ORBIFLY MET'MAP TEAM :

Programming & Development : Alexandra Zaïnal
Concept & Development : Baudouin d'Aumeries
Co-Development & Prog : Marc-Olivier Méhu
Technical & hardware support : Manuel Goepfert

Contact : metmap@orbifly.com




SOURCES & CREDITS :

   NOAA